Time;durP1;ratioP1;P1;durP2;ratioP2;P2;SDS_P1;SDS_P2;PMS_P1;PMS_P2;Temp;Humidity;BMP_temperature;BMP_pressure;BME280_temperature;BME280_humidity;BME280_pressure;Samples;Min_cycle;Max_cycle;Signal;HPM_P1;HPM_P2
2024/04/14 00:02:21;;;;;;;3.40;3.10;;;;;;;17.70;59.58;155910.50;5423017;26;20912;-76
2024/04/14 00:04:48;;;;;;;3.77;3.37;;;;;;;17.66;59.30;155900.06;5420689;26;20473;-76
2024/04/14 00:07:18;;;;;;;4.03;3.63;;;;;;;17.62;59.39;155890.97;5465622;26;20522;-76
2024/04/14 00:09:44;;;;;;;3.70;2.70;;;;;;;17.60;59.62;155885.78;5414104;26;20456;-75
2024/04/14 00:12:12;;;;;;;3.27;2.97;;;;;;;17.62;59.84;155889.66;5436719;26;20589;-76
2024/04/14 00:14:38;;;;;;;3.40;3.10;;;;;;;17.58;59.34;155880.53;5449936;26;20242;-76
2024/04/14 00:17:08;;;;;;;4.87;3.73;;;;;;;17.55;59.17;155871.47;5439120;26;20464;-76
2024/04/14 00:19:34;;;;;;;4.03;3.30;;;;;;;17.55;58.89;155871.47;5427908;26;20234;-78
2024/04/14 00:22:02;;;;;;;3.57;3.27;;;;;;;17.55;58.98;155872.72;5448433;26;20519;-76
2024/04/14 00:24:28;;;;;;;3.60;3.30;;;;;;;17.49;58.71;155855.78;5458301;26;20233;-76
2024/04/14 00:26:56;;;;;;;3.53;3.23;;;;;;;17.46;58.93;155847.94;5418481;26;20468;-76
2024/04/14 00:29:22;;;;;;;3.87;2.97;;;;;;;17.44;59.11;155842.75;5419009;26;20453;-76
2024/04/14 00:31:50;;;;;;;3.23;2.93;;;;;;;17.38;59.21;155827.13;5430082;26;21041;-76
2024/04/14 00:34:18;;;;;;;4.63;3.37;;;;;;;17.34;59.03;155816.72;5441654;26;20237;-76
2024/04/14 00:36:46;;;;;;;5.20;3.57;;;;;;;17.26;59.09;155795.91;5441519;26;20482;-76
2024/04/14 00:39:12;;;;;;;4.53;2.90;;;;;;;17.21;59.23;155782.91;5416465;26;20563;-76
2024/04/14 00:41:40;;;;;;;3.50;2.90;;;;;;;17.15;59.53;155767.28;5479375;26;20996;-76
2024/04/14 00:44:06;;;;;;;4.90;3.07;;;;;;;17.14;59.47;155764.66;5483406;26;20748;-76
2024/04/14 00:46:34;;;;;;;3.73;3.43;;;;;;;17.08;59.86;155749.06;5472800;26;20469;-76
2024/04/14 00:49:00;;;;;;;4.23;3.30;;;;;;;17.04;59.76;155741.25;5448939;26;20241;-76
2024/04/14 00:51:31;;;;;;;4.10;3.10;;;;;;;17.03;60.09;155737.31;5475030;26;20504;-76
2024/04/14 00:53:57;;;;;;;3.30;3.10;;;;;;;16.98;59.60;155725.63;5463636;26;20458;-76
2024/04/14 00:56:27;;;;;;;3.43;2.97;;;;;;;17.00;60.49;155729.50;5464987;26;21079;-76
2024/04/14 00:58:53;;;;;;;3.40;2.90;;;;;;;17.00;60.14;155729.50;5476784;26;20769;-76
2024/04/14 01:01:21;;;;;;;3.83;3.47;;;;;;;17.01;59.99;155732.13;5477141;26;20475;-76
2024/04/14 01:03:48;;;;;;;4.70;3.00;;;;;;;16.96;60.01;155720.44;5432140;26;20242;-76
2024/04/14 01:06:18;;;;;;;3.67;3.37;;;;;;;16.93;59.96;155712.63;5466571;26;20485;-76
2024/04/14 01:08:46;;;;;;;3.70;2.90;;;;;;;16.91;60.25;155707.44;5483420;26;20983;-76
2024/04/14 01:11:14;;;;;;;3.00;2.70;;;;;;;16.90;59.98;155704.81;5450719;26;20934;-76
2024/04/14 01:13:40;;;;;;;5.70;2.97;;;;;;;16.86;59.84;155694.41;5466221;26;20518;-76
2024/04/14 01:16:08;;;;;;;3.90;2.63;;;;;;;16.81;60.19;155681.38;5486723;26;20826;-76
2024/04/14 01:18:34;;;;;;;2.90;2.70;;;;;;;16.79;60.51;155676.19;5458384;26;20272;-76
2024/04/14 01:21:02;;;;;;;3.60;3.30;;;;;;;16.78;60.60;155673.59;5456529;26;20850;-76
2024/04/14 01:23:28;;;;;;;3.33;3.03;;;;;;;16.78;60.79;155673.59;5446024;26;20246;-76
2024/04/14 01:26:00;;;;;;;4.50;4.10;;;;;;;16.77;61.12;155670.97;5482954;26;20828;-76
2024/04/14 01:28:26;;;;;;;3.67;2.90;;;;;;;16.74;61.03;155663.16;5451098;26;20272;-76
2024/04/14 01:30:54;;;;;;;4.07;3.77;;;;;;;16.72;61.31;155657.97;5485872;26;21104;-76
2024/04/14 01:33:19;;;;;;;4.40;3.30;;;;;;;16.66;61.12;155642.34;5482379;26;20280;-76
2024/04/14 01:35:47;;;;;;;3.80;3.50;;;;;;;16.60;61.67;155626.72;5473314;26;20995;-76
2024/04/14 01:38:14;;;;;;;3.90;3.40;;;;;;;16.54;61.76;155611.16;5466458;26;20237;-76
2024/04/14 01:40:42;;;;;;;5.13;3.60;;;;;;;16.53;62.22;155608.53;5466752;26;20462;-76
2024/04/14 01:43:10;;;;;;;3.90;3.50;;;;;;;16.47;61.69;155592.88;5448608;26;20467;-76
2024/04/14 01:45:38;;;;;;;4.60;3.20;;;;;;;16.42;62.35;155581.16;5485317;26;20511;-76
2024/04/14 01:48:07;;;;;;;3.87;3.30;;;;;;;16.43;62.18;155582.47;5441566;26;20505;-76
2024/04/14 01:50:36;;;;;;;4.67;2.97;;;;;;;16.42;62.88;155581.16;5480265;26;21204;-76
2024/04/14 01:53:01;;;;;;;4.17;3.30;;;;;;;16.36;62.71;155564.28;5473387;26;20463;-76
2024/04/14 01:55:29;;;;;;;5.07;3.63;;;;;;;16.32;62.64;155555.16;5454993;26;21496;-76
2024/04/14 01:57:55;;;;;;;5.00;3.70;;;;;;;16.31;63.14;155551.25;5443941;26;20363;-76
2024/04/14 02:00:26;;;;;;;4.33;3.70;;;;;;;16.30;62.96;155549.97;5462142;26;20479;-76
2024/04/14 02:02:54;;;;;;;3.90;3.20;;;;;;;16.25;62.76;155536.97;5473054;26;20240;-76
2024/04/14 02:05:22;;;;;;;5.83;4.30;;;;;;;16.20;63.38;155523.94;5416195;26;21037;-76
2024/04/14 02:07:48;;;;;;;3.70;3.40;;;;;;;16.18;63.76;155517.44;5472151;26;21033;-76
2024/04/14 02:10:16;;;;;;;4.70;3.70;;;;;;;16.15;63.44;155509.66;5460315;26;20477;-76
2024/04/14 02:12:42;;;;;;;4.47;3.77;;;;;;;16.12;63.67;155501.88;5449050;26;20275;-75
2024/04/14 02:15:10;;;;;;;6.40;4.30;;;;;;;16.11;63.70;155499.25;5455867;26;20458;-75
2024/04/14 02:17:39;;;;;;;5.00;4.43;;;;;;;16.12;63.79;155503.16;5447955;26;20241;-77
2024/04/14 02:20:10;;;;;;;3.83;3.50;;;;;;;16.06;63.75;155487.56;5474841;26;20517;-76
2024/04/14 02:22:38;;;;;;;4.17;3.60;;;;;;;16.01;63.60;155473.25;5445726;26;20539;-76
2024/04/14 02:25:04;;;;;;;4.43;4.03;;;;;;;15.95;63.87;155457.63;5474469;26;20885;-76
2024/04/14 02:27:32;;;;;;;4.37;4.00;;;;;;;15.90;64.32;155444.63;5447130;26;20522;-75
2024/04/14 02:29:58;;;;;;;4.23;3.70;;;;;;;15.84;64.38;155431.63;5465809;26;20500;-75
2024/04/14 02:32:26;;;;;;;4.10;3.70;;;;;;;15.79;64.93;155417.34;5426537;26;20876;-76
2024/04/14 02:34:54;;;;;;;4.80;4.30;;;;;;;15.81;65.20;155423.81;5444749;26;20264;-77
2024/04/14 02:37:22;;;;;;;4.13;3.73;;;;;;;15.82;64.42;155426.44;5436175;26;20475;-76
2024/04/14 02:39:48;;;;;;;3.50;3.20;;;;;;;15.77;64.84;155413.47;5467307;26;20463;-76
2024/04/14 02:42:16;;;;;;;4.13;3.67;;;;;;;15.71;65.42;155397.84;5466034;26;20567;-77
2024/04/14 02:44:41;;;;;;;4.30;3.90;;;;;;;15.70;65.51;155395.22;5437043;26;20275;-76
2024/04/14 02:47:09;;;;;;;3.70;3.37;;;;;;;15.65;64.73;155382.22;5472494;26;20462;-76
2024/04/14 02:49:35;;;;;;;4.70;3.70;;;;;;;15.63;65.00;155377.03;5424273;26;20233;-76
2024/04/14 02:52:06;;;;;;;5.83;3.80;;;;;;;15.60;65.38;155369.22;5481218;26;20524;-76
2024/04/14 02:54:32;;;;;;;4.17;3.77;;;;;;;15.58;65.59;155364.03;5478184;26;20236;-77
2024/04/14 02:57:00;;;;;;;4.37;3.67;;;;;;;15.60;64.90;155369.22;5449610;26;20978;-77
2024/04/14 02:59:26;;;;;;;4.57;3.90;;;;;;;15.58;65.04;155364.03;5412771;26;20272;-76
2024/04/14 03:01:54;;;;;;;4.60;3.77;;;;;;;15.56;65.80;155358.84;5462867;26;20463;-76
2024/04/14 03:04:20;;;;;;;3.60;3.30;;;;;;;15.57;64.86;155361.44;5466314;26;20241;-76
2024/04/14 03:06:48;;;;;;;4.00;3.57;;;;;;;15.57;65.13;155361.44;5481046;26;20910;-76
2024/04/14 03:09:16;;;;;;;3.97;3.10;;;;;;;15.58;64.71;155362.75;5481656;26;20592;-76
2024/04/14 03:11:46;;;;;;;3.33;2.90;;;;;;;15.57;64.52;155361.44;5470312;26;20503;-77
2024/04/14 03:14:11;;;;;;;3.37;3.07;;;;;;;15.56;64.41;155358.84;5469429;26;20523;-76
2024/04/14 03:16:40;;;;;;;3.70;2.93;;;;;;;15.57;64.86;155361.44;5495014;26;20482;-76
2024/04/14 03:19:05;;;;;;;4.40;3.20;;;;;;;15.55;64.09;155356.25;5467646;26;20272;-76
2024/04/14 03:21:34;;;;;;;2.90;2.70;;;;;;;15.56;64.55;155358.84;5480357;26;20454;-77
2024/04/14 03:23:59;;;;;;;3.20;2.90;;;;;;;15.51;64.38;155345.88;5480218;26;21035;-76
2024/04/14 03:26:30;;;;;;;3.03;2.73;;;;;;;15.51;64.00;155345.88;5490261;26;20538;-77
2024/04/14 03:28:56;;;;;;;3.23;2.90;;;;;;;15.47;63.56;155335.44;5482146;26;20241;-76
2024/04/14 03:31:24;;;;;;;3.00;2.67;;;;;;;15.47;63.95;155335.44;5464305;26;20902;-77
2024/04/14 03:33:50;;;;;;;3.67;2.83;;;;;;;15.47;63.80;155334.13;5425686;26;20236;-76
2024/04/14 03:36:18;;;;;;;3.73;3.30;;;;;;;15.42;63.80;155322.41;5479209;26;20534;-77
2024/04/14 03:38:46;;;;;;;3.93;2.80;;;;;;;15.41;63.95;155319.78;5479359;26;20272;-77
2024/04/14 03:41:15;;;;;;;3.67;2.90;;;;;;;15.37;63.81;155309.41;5447067;26;20545;-76
2024/04/14 03:43:48;;;;;;;4.07;2.83;;;;;;;15.38;63.21;155311.97;5446041;26;20466;-76
2024/04/14 03:46:16;;;;;;;2.73;2.53;;;;;;;15.38;63.63;155310.72;5445183;26;20460;-77
2024/04/14 03:48:44;;;;;;;3.40;3.07;;;;;;;15.38;63.54;155311.97;5452685;26;20518;-76
2024/04/14 03:51:09;;;;;;;3.03;2.47;;;;;;;15.36;63.32;155306.78;5483957;26;21083;-77
2024/04/14 03:53:38;;;;;;;2.93;2.53;;;;;;;15.33;63.43;155298.97;5474428;26;20529;-76
2024/04/14 03:56:04;;;;;;;4.20;3.60;;;;;;;15.36;62.64;155305.47;5478249;26;20257;-76
2024/04/14 03:58:33;;;;;;;2.63;2.43;;;;;;;15.35;63.00;155302.91;5449480;26;20462;-76
2024/04/14 04:01:02;;;;;;;2.70;2.50;;;;;;;15.30;62.21;155291.22;5450568;26;20457;-77
2024/04/14 04:03:30;;;;;;;3.00;2.70;;;;;;;15.29;63.16;155287.31;5460883;26;20556;-76
2024/04/14 04:05:56;;;;;;;3.53;3.00;;;;;;;15.28;62.28;155286.00;5450956;26;20473;-76
2024/04/14 04:08:24;;;;;;;3.20;2.90;;;;;;;15.27;63.09;155283.44;5445513;26;20521;-76
2024/04/14 04:10:57;;;;;;;2.67;2.20;;;;;;;15.25;62.50;155279.50;5479893;26;20354;-76
2024/04/14 04:13:26;;;;;;;2.80;2.60;;;;;;;15.24;62.81;155275.63;5491161;26;20785;-76
2024/04/14 04:15:59;;;;;;;2.63;2.40;;;;;;;15.25;62.36;155278.19;5498088;26;21011;-76
2024/04/14 04:18:27;;;;;;;2.67;2.43;;;;;;;15.26;62.47;155280.81;5482446;26;20474;-76
2024/04/14 04:20:56;;;;;;;2.40;2.20;;;;;;;15.22;62.61;155271.69;5461586;26;20458;-76
2024/04/14 04:23:21;;;;;;;2.93;2.63;;;;;;;15.21;62.13;155267.81;5457150;26;20466;-76
2024/04/14 04:25:50;;;;;;;3.00;2.67;;;;;;;15.18;62.37;155261.31;5485959;26;20458;-77
2024/04/14 04:28:15;;;;;;;4.47;2.50;;;;;;;15.17;62.01;155258.72;5477889;26;20723;-76
2024/04/14 04:30:43;;;;;;;3.80;2.80;;;;;;;15.17;62.73;155257.41;5484554;26;20521;-76
2024/04/14 04:33:09;;;;;;;3.60;2.60;;;;;;;15.18;62.63;155260.00;5420136;26;20249;-75
2024/04/14 04:35:40;;;;;;;3.90;2.50;;;;;;;15.18;62.93;155260.00;5485570;26;20912;-76
2024/04/14 04:38:06;;;;;;;2.40;2.20;;;;;;;15.15;62.92;155253.53;5465275;26;20763;-75
2024/04/14 04:40:34;;;;;;;3.00;2.70;;;;;;;15.17;62.28;155257.41;5491065;26;20512;-75
2024/04/14 04:43:00;;;;;;;8.33;2.77;;;;;;;15.16;62.91;155254.81;5453250;26;20290;-77
2024/04/14 04:45:28;;;;;;;2.53;2.20;;;;;;;15.14;62.90;155249.66;5420474;26;20561;-76
2024/04/14 04:47:53;;;;;;;2.77;2.33;;;;;;;15.14;63.10;155250.91;5479356;26;20338;-76
2024/04/14 04:50:21;;;;;;;6.90;3.37;;;;;;;15.14;63.55;155249.66;5432417;26;20467;-77
2024/04/14 04:52:50;;;;;;;2.73;2.30;;;;;;;15.19;63.21;155262.63;5476387;26;20256;-76
2024/04/14 04:55:18;;;;;;;2.50;2.30;;;;;;;15.21;63.53;155267.81;5476002;26;20853;-76
2024/04/14 04:57:46;;;;;;;3.03;2.73;;;;;;;15.25;63.70;155278.19;5498755;26;20649;-76
2024/04/14 05:00:15;;;;;;;2.93;2.50;;;;;;;15.30;63.71;155289.91;5435591;26;20531;-76
2024/04/14 05:02:41;;;;;;;2.60;2.40;;;;;;;15.34;62.76;155301.59;5443061;26;21095;-76
2024/04/14 05:05:09;;;;;;;3.90;3.20;;;;;;;15.35;62.94;155304.22;5494537;26;20468;-76
2024/04/14 05:07:34;;;;;;;4.37;2.43;;;;;;;15.36;63.99;155305.47;5467997;26;20270;-76
2024/04/14 05:10:06;;;;;;;2.70;2.40;;;;;;;15.38;63.37;155310.72;5459259;26;20456;-75
2024/04/14 05:12:31;;;;;;;3.23;2.30;;;;;;;15.41;63.49;155319.78;5499922;26;20244;-75
2024/04/14 05:15:04;;;;;;;2.60;2.10;;;;;;;15.47;63.44;155334.13;5494897;26;20464;-78
2024/04/14 05:17:30;;;;;;;2.60;2.40;;;;;;;15.52;63.84;155348.44;5493024;26;20243;-79
2024/04/14 05:19:58;;;;;;;2.70;2.30;;;;;;;15.60;63.78;155367.91;5463186;26;20460;-79
2024/04/14 05:22:23;;;;;;;3.03;2.20;;;;;;;15.67;63.86;155386.16;5500242;26;20346;-79
2024/04/14 05:24:52;;;;;;;2.60;2.40;;;;;;;15.70;63.31;155395.22;5439262;26;20469;-79
2024/04/14 05:27:20;;;;;;;2.67;2.47;;;;;;;15.80;62.70;155421.25;5487492;26;20331;-79
2024/04/14 05:29:48;;;;;;;3.20;2.73;;;;;;;15.87;63.37;155436.81;5494106;26;21352;-79
2024/04/14 05:32:17;;;;;;;3.70;2.30;;;;;;;15.97;63.34;155462.81;5494504;26;20534;-79
2024/04/14 05:34:45;;;;;;;3.37;2.10;;;;;;;16.04;62.79;155481.06;5473291;26;21042;-79
2024/04/14 05:37:11;;;;;;;2.83;2.33;;;;;;;16.16;62.24;155512.25;5487095;26;21139;-79
2024/04/14 05:39:39;;;;;;;2.80;2.30;;;;;;;16.32;62.36;155553.84;5454830;26;20463;-79
2024/04/14 05:42:05;;;;;;;2.97;2.40;;;;;;;16.55;61.85;155612.47;5491741;26;20248;-79
2024/04/14 05:44:37;;;;;;;3.03;2.40;;;;;;;16.83;61.42;155686.59;5490920;26;21144;-79
2024/04/14 05:47:10;;;;;;;2.50;2.30;;;;;;;17.14;60.68;155764.66;5495612;26;20515;-79
2024/04/14 05:49:38;;;;;;;3.13;2.47;;;;;;;17.38;60.10;155828.44;5453879;26;20465;-78
2024/04/14 05:52:07;;;;;;;3.20;2.37;;;;;;;17.59;59.41;155881.84;5493219;26;20514;-78
2024/04/14 05:54:36;;;;;;;5.37;2.57;;;;;;;17.76;58.63;155926.13;5463249;26;20572;-78
2024/04/14 05:57:02;;;;;;;3.03;2.57;;;;;;;17.90;58.53;155962.56;5463643;26;20464;-78
2024/04/14 05:59:31;;;;;;;2.30;2.10;;;;;;;18.03;57.88;155996.41;5492503;26;20458;-77
2024/04/14 06:01:59;;;;;;;3.00;2.70;;;;;;;18.17;57.45;156032.88;5460253;26;21175;-75
2024/04/14 06:04:27;;;;;;;5.10;2.63;;;;;;;18.23;56.97;156048.53;5498021;26;20474;-76
2024/04/14 06:06:54;;;;;;;2.27;2.07;;;;;;;18.27;57.19;156056.34;5492756;26;20583;-76
2024/04/14 06:09:23;;;;;;;2.60;2.40;;;;;;;18.32;57.21;156069.38;5496555;26;20532;-76
2024/04/14 06:11:49;;;;;;;3.03;2.40;;;;;;;18.37;57.43;156083.69;5498089;26;21060;-75
2024/04/14 06:14:17;;;;;;;3.50;2.50;;;;;;;18.49;56.99;156114.97;5497020;26;20466;-75
2024/04/14 06:16:43;;;;;;;2.70;2.50;;;;;;;18.58;57.29;156137.13;5465335;26;20252;-75
2024/04/14 06:19:14;;;;;;;3.60;2.60;;;;;;;18.67;57.54;156160.56;5492556;26;21077;-76
2024/04/14 06:21:40;;;;;;;4.83;2.50;;;;;;;18.84;56.96;156204.88;5496408;26;20571;-75
2024/04/14 06:24:08;;;;;;;2.80;2.50;;;;;;;19.05;56.51;156258.28;5499933;26;20847;-75
2024/04/14 06:26:34;;;;;;;3.73;2.67;;;;;;;19.21;56.08;156301.31;5495980;26;20303;-76
2024/04/14 06:29:02;;;;;;;5.30;2.70;;;;;;;19.36;55.38;156339.09;5465531;26;20469;-76
2024/04/14 06:31:28;;;;;;;2.60;2.20;;;;;;;19.53;55.19;156382.16;5435933;26;20272;-76
2024/04/14 06:33:56;;;;;;;3.13;2.67;;;;;;;19.64;55.58;156410.84;5495052;26;20526;-76
2024/04/14 06:36:24;;;;;;;3.30;2.30;;;;;;;19.73;54.18;156435.59;5489755;26;20963;-76
2024/04/14 06:38:54;;;;;;;3.83;2.57;;;;;;;19.83;54.58;156460.41;5493284;26;20903;-76
2024/04/14 06:41:19;;;;;;;3.37;2.40;;;;;;;20.01;53.98;156508.59;5494744;26;20469;-76
2024/04/14 06:43:48;;;;;;;3.00;2.63;;;;;;;20.18;52.68;156550.34;5494330;26;20955;-75
2024/04/14 06:46:13;;;;;;;2.67;2.47;;;;;;;20.36;52.04;156598.66;5466208;26;20248;-76
2024/04/14 06:48:45;;;;;;;3.00;2.47;;;;;;;20.59;52.09;156658.69;5496499;26;20958;-77
2024/04/14 06:51:11;;;;;;;2.57;2.23;;;;;;;20.79;51.77;156709.53;5497769;26;20248;-75
2024/04/14 06:53:41;;;;;;;2.80;2.50;;;;;;;21.02;51.02;156769.56;5495348;26;20856;-77
2024/04/14 06:56:07;;;;;;;2.77;2.57;;;;;;;21.26;50.99;156829.66;5461103;26;20239;-77
2024/04/14 06:58:36;;;;;;;2.97;2.73;;;;;;;21.49;50.47;156889.69;5463540;26;20464;-75
2024/04/14 07:01:01;;;;;;;3.00;2.63;;;;;;;21.68;49.33;156939.31;5492338;26;20288;-77
2024/04/14 07:03:29;;;;;;;3.10;2.23;;;;;;;21.82;49.62;156975.84;5492263;26;20477;-76
2024/04/14 07:05:56;;;;;;;2.90;2.60;;;;;;;21.95;48.41;157008.56;5490768;26;20323;-77
2024/04/14 07:08:24;;;;;;;2.60;2.40;;;;;;;22.09;48.67;157046.41;5459674;26;21120;-75
2024/04/14 07:10:52;;;;;;;2.50;2.30;;;;;;;22.17;48.36;157066.00;5494424;26;20518;-74
2024/04/14 07:13:20;;;;;;;3.20;2.30;;;;;;;22.18;48.75;157068.63;5491546;26;20596;-76
2024/04/14 07:15:46;;;;;;;2.43;2.23;;;;;;;22.13;48.73;157056.88;5488595;26;21425;-76
2024/04/14 07:18:17;;;;;;;2.77;2.50;;;;;;;22.07;48.75;157041.22;5492331;26;20473;-76
2024/04/14 07:20:43;;;;;;;3.20;2.80;;;;;;;22.09;48.67;157046.41;5493898;26;20240;-75
2024/04/14 07:23:11;;;;;;;2.77;2.30;;;;;;;22.10;49.46;157047.72;5488798;26;20520;-75
2024/04/14 07:25:37;;;;;;;3.20;2.60;;;;;;;22.17;49.17;157067.31;5489193;26;20239;-75
2024/04/14 07:28:08;;;;;;;2.90;2.57;;;;;;;22.19;48.47;157071.22;5493562;26;20520;-75
2024/04/14 07:30:33;;;;;;;2.80;2.30;;;;;;;22.15;47.64;157060.78;5455506;26;20236;-76
2024/04/14 07:33:02;;;;;;;2.80;2.50;;;;;;;22.19;49.12;157071.22;5461942;26;20553;-75
2024/04/14 07:35:27;;;;;;;3.10;2.90;;;;;;;22.23;48.67;157081.69;5460544;26;20241;-75
2024/04/14 07:37:55;;;;;;;3.20;2.50;;;;;;;22.28;49.14;157094.75;5495974;26;20789;-75
2024/04/14 07:40:21;;;;;;;2.80;2.50;;;;;;;22.37;49.22;157118.28;5435746;26;20253;-77
2024/04/14 07:42:50;;;;;;;4.37;2.90;;;;;;;22.51;48.06;157153.50;5495642;26;20470;-77
2024/04/14 07:45:18;;;;;;;3.13;2.30;;;;;;;22.59;48.94;157174.41;5488898;26;20505;-77
2024/04/14 07:47:47;;;;;;;2.63;2.23;;;;;;;22.76;49.18;157220.22;5493984;21;20492;-85
2024/04/14 07:50:12;;;;;;;2.60;2.40;;;;;;;22.86;48.11;157246.31;5387285;26;20472;-84
2024/04/14 07:52:40;;;;;;;3.57;2.67;;;;;;;22.95;48.45;157268.56;5403850;26;20544;-84
2024/04/14 07:55:06;;;;;;;3.03;2.70;;;;;;;23.06;47.59;157296.00;5404636;26;20347;-84
2024/04/14 07:57:35;;;;;;;3.80;2.60;;;;;;;23.18;47.04;157327.34;5404380;26;20886;-84
2024/04/14 08:00:00;;;;;;;2.87;2.40;;;;;;;23.26;47.51;157348.25;5375494;26;20468;-84
2024/04/14 08:02:31;;;;;;;4.60;2.50;;;;;;;23.40;46.89;157384.91;5405077;26;20529;-84
2024/04/14 08:04:57;;;;;;;2.93;2.63;;;;;;;23.48;45.47;157407.09;5403827;26;20251;-84
2024/04/14 08:07:25;;;;;;;2.53;2.33;;;;;;;23.59;46.01;157434.53;5372081;26;20484;-85
2024/04/14 08:09:50;;;;;;;2.73;2.27;;;;;;;23.72;46.04;157468.56;5404125;26;20613;-85
2024/04/14 08:12:19;;;;;;;3.40;2.70;;;;;;;23.67;45.83;157455.47;5407056;26;20480;-85
2024/04/14 08:14:44;;;;;;;2.60;2.40;;;;;;;23.67;46.52;157454.19;5403279;26;20273;-85
2024/04/14 08:17:12;;;;;;;2.83;2.60;;;;;;;23.65;46.45;157450.25;5372035;26;21364;-85
2024/04/14 08:19:41;;;;;;;2.70;2.40;;;;;;;23.74;46.01;157472.47;5365232;26;20264;-85
2024/04/14 08:22:09;;;;;;;2.53;2.27;;;;;;;23.81;45.90;157492.06;5377286;26;20536;-85
2024/04/14 08:24:35;;;;;;;3.10;2.80;;;;;;;23.91;46.58;157518.22;5372182;26;20457;-85
2024/04/14 08:27:03;;;;;;;2.83;2.60;;;;;;;23.99;46.24;157539.13;5405398;26;20855;-85
2024/04/14 08:29:29;;;;;;;3.63;2.73;;;;;;;24.08;45.65;157562.75;5398842;26;20294;-85
2024/04/14 08:31:59;;;;;;;2.87;2.67;;;;;;;24.04;45.24;157552.22;5373153;26;20971;-85
2024/04/14 08:34:25;;;;;;;4.07;2.57;;;;;;;24.07;45.95;157558.75;5401317;26;20254;-84
2024/04/14 08:36:55;;;;;;;2.43;2.20;;;;;;;24.15;44.85;157579.72;5401953;26;20592;-85
2024/04/14 08:39:26;;;;;;;2.60;2.40;;;;;;;24.21;45.41;157596.75;5404676;26;20246;-85
2024/04/14 08:41:55;;;;;;;3.23;2.30;;;;;;;24.35;45.75;157630.75;5372910;26;20979;-85
2024/04/14 08:44:23;;;;;;;3.33;2.63;;;;;;;24.43;44.78;157653.00;5371664;26;21022;-85
2024/04/14 08:46:49;;;;;;;2.80;2.47;;;;;;;24.47;44.92;157662.13;5369949;26;20536;-85
2024/04/14 08:49:19;;;;;;;3.37;2.80;;;;;;;24.51;44.58;157672.59;5376436;26;20865;-85
2024/04/14 08:51:45;;;;;;;2.80;2.60;;;;;;;24.56;45.97;157685.69;5348202;26;20551;-86
2024/04/14 08:54:16;;;;;;;3.57;2.43;;;;;;;24.62;45.77;157702.66;5404789;26;20526;-90
2024/04/14 08:56:42;;;;;;;3.17;2.60;;;;;;;24.73;46.26;157730.13;5371478;26;20468;-89
2024/04/14 08:59:11;;;;;;;3.17;2.83;;;;;;;24.79;46.22;157747.22;5380688;26;20514;-88
2024/04/14 09:01:37;;;;;;;3.33;2.57;;;;;;;24.86;46.12;157764.19;5378344;26;20285;-90
2024/04/14 09:04:07;;;;;;;3.20;2.70;;;;;;;24.86;45.29;157762.94;5377023;26;20473;-88
2024/04/14 09:06:32;;;;;;;3.70;2.47;;;;;;;24.83;44.56;157756.38;5406382;26;20242;-90
2024/04/14 09:09:01;;;;;;;2.90;2.33;;;;;;;24.83;45.91;157756.38;5374836;26;20520;-90
2024/04/14 09:11:29;;;;;;;3.40;2.87;;;;;;;24.83;45.80;157756.38;5378737;26;20246;-90
2024/04/14 09:13:59;;;;;;;3.23;2.93;;;;;;;24.87;46.21;157766.84;5403429;26;20536;-90
2024/04/14 09:16:24;;;;;;;2.60;2.40;;;;;;;24.94;45.18;157785.13;5378360;26;20607;-89
2024/04/14 09:18:52;;;;;;;2.80;2.60;;;;;;;24.97;45.32;157793.00;5393367;26;20485;-89
2024/04/14 09:21:18;;;;;;;3.13;2.80;;;;;;;25.00;45.67;157800.84;5406960;26;20254;-91
2024/04/14 09:23:46;;;;;;;2.90;2.70;;;;;;;24.95;46.17;157787.75;5376967;26;20587;-91
2024/04/14 09:26:13;;;;;;;3.03;2.50;;;;;;;24.89;46.84;157772.03;5377552;26;20251;-90
2024/04/14 09:28:44;;;;;;;3.27;2.87;;;;;;;24.86;46.85;157762.94;5379077;26;20473;-90
2024/04/14 09:31:09;;;;;;;3.47;3.17;;;;;;;24.91;46.01;157777.31;5374021;26;20469;-90
2024/04/14 09:33:38;;;;;;;2.97;2.63;;;;;;;25.00;45.79;157800.84;5407896;26;21074;-91
2024/04/14 09:36:04;;;;;;;3.60;3.30;;;;;;;24.74;45.94;157734.09;5378193;26;20247;-91
2024/04/14 09:38:33;;;;;;;3.97;3.57;;;;;;;24.57;45.23;157689.59;5410032;26;20480;-91
2024/04/14 09:41:00;;;;;;;3.53;3.23;;;;;;;24.33;45.42;157625.53;5373746;26;20468;-91
2024/04/14 09:43:28;;;;;;;3.80;3.40;;;;;;;23.99;46.82;157537.81;5375785;26;20497;-90
2024/04/14 09:45:57;;;;;;;3.90;3.50;;;;;;;23.70;47.48;157462.00;5406760;26;20461;-91
2024/04/14 09:48:27;;;;;;;3.70;3.40;;;;;;;23.58;47.55;157431.97;5405745;26;20555;-89
2024/04/14 09:50:54;;;;;;;4.17;3.77;;;;;;;23.63;46.97;157445.03;5408528;26;20511;-90
2024/04/14 09:53:30;;;;;;;6.07;3.60;;;;;;;23.51;47.37;157414.94;5409211;26;20481;-90
2024/04/14 09:55:56;;;;;;;4.00;3.60;;;;;;;23.50;48.52;157411.03;5391603;26;21249;-90
2024/04/14 09:58:24;;;;;;;4.23;3.80;;;;;;;23.52;48.90;157416.25;5375847;26;20544;-91
2024/04/14 10:00:50;;;;;;;3.43;3.13;;;;;;;23.47;48.39;157403.19;5375960;26;20724;-90
2024/04/14 10:03:22;;;;;;;3.80;3.50;;;;;;;23.56;50.42;157426.75;5410410;26;20529;-90
2024/04/14 10:05:48;;;;;;;3.60;3.30;;;;;;;23.73;49.77;157471.16;5405697;26;20461;-91
2024/04/14 10:08:16;;;;;;;4.57;4.03;;;;;;;23.56;50.09;157426.75;5377288;26;20480;-90
2024/04/14 10:10:42;;;;;;;4.10;3.70;;;;;;;23.54;51.45;157421.47;5378666;26;20901;-91
2024/04/14 10:13:12;;;;;;;3.50;3.20;;;;;;;23.59;51.17;157434.53;5407702;26;20904;-90
2024/04/14 10:15:38;;;;;;;4.10;3.80;;;;;;;23.57;51.10;157430.63;5384922;26;20614;-91
2024/04/14 10:18:12;;;;;;;4.10;3.53;;;;;;;23.61;51.71;157439.81;5404314;26;20478;-91
2024/04/14 10:20:45;;;;;;;5.83;3.23;;;;;;;23.57;52.21;157429.31;5370219;26;20294;-89
2024/04/14 10:23:18;;;;;;;3.93;3.63;;;;;;;23.52;52.57;157416.25;5369313;26;20834;-91
2024/04/14 10:25:45;;;;;;;4.60;3.73;;;;;;;23.40;53.40;157386.22;5407876;26;20466;-91
2024/04/14 10:28:13;;;;;;;5.30;4.13;;;;;;;23.47;53.87;157403.19;5375563;26;20476;-90
2024/04/14 10:30:39;;;;;;;4.93;3.73;;;;;;;23.41;53.48;157387.50;5378024;26;20480;-89
2024/04/14 10:33:08;;;;;;;4.37;4.00;;;;;;;23.41;53.72;157388.81;5410378;26;21146;-88
2024/04/14 10:35:33;;;;;;;4.50;4.00;;;;;;;23.43;54.45;157392.75;5402431;26;20303;-90
2024/04/14 10:38:05;;;;;;;4.80;3.70;;;;;;;23.44;55.29;157396.66;5372644;26;20500;-90
2024/04/14 10:40:31;;;;;;;4.80;3.80;;;;;;;23.42;55.55;157390.13;5353631;26;20472;-90
2024/04/14 10:42:59;;;;;;;5.17;3.57;;;;;;;23.31;55.36;157361.31;5407579;26;20540;-89
2024/04/14 10:45:25;;;;;;;6.03;3.83;;;;;;;23.17;55.97;157324.69;5382093;26;20709;-90
2024/04/14 10:47:53;;;;;;;5.90;5.23;;;;;;;23.24;56.74;157344.34;5382102;26;20485;-90
2024/04/14 10:50:19;;;;;;;6.03;4.60;;;;;;;23.02;56.70;157288.16;5401982;26;21232;-90
2024/04/14 10:52:47;;;;;;;7.93;6.10;;;;;;;22.98;56.28;157276.41;5376880;26;20558;-92
2024/04/14 10:55:16;;;;;;;6.30;5.47;;;;;;;22.92;56.96;157260.69;5342154;26;20671;-90
2024/04/14 10:57:44;;;;;;;4.83;4.37;;;;;;;23.12;56.90;157311.63;5376585;26;20889;-89
2024/04/14 11:00:10;;;;;;;4.70;4.30;;;;;;;23.33;56.73;157366.53;5375148;26;20481;-89
2024/04/14 11:02:39;;;;;;;5.33;4.10;;;;;;;23.47;56.48;157403.19;5374356;26;20469;-91
2024/04/14 11:05:06;;;;;;;4.60;4.20;;;;;;;23.44;56.29;157395.34;5374135;26;20596;-89
2024/04/14 11:07:34;;;;;;;5.20;4.20;;;;;;;23.41;56.39;157388.81;5375302;26;20497;-90
2024/04/14 11:10:00;;;;;;;5.10;4.20;;;;;;;23.47;56.49;157403.19;5406519;26;21006;-91
2024/04/14 11:12:30;;;;;;;4.47;3.97;;;;;;;23.45;55.97;157397.97;5406061;26;20526;-90
2024/04/14 11:14:56;;;;;;;3.93;3.63;;;;;;;23.44;56.47;157395.34;5377150;26;20251;-90
2024/04/14 11:17:25;;;;;;;5.70;3.90;;;;;;;23.28;56.80;157353.47;5402894;26;20569;-90
2024/04/14 11:19:50;;;;;;;6.47;4.10;;;;;;;23.18;57.45;157328.66;5400424;26;20250;-90
2024/04/14 11:22:19;;;;;;;5.13;4.07;;;;;;;23.03;57.27;157290.72;5405301;26;20602;-91
2024/04/14 11:24:49;;;;;;;4.00;3.60;;;;;;;23.14;58.02;157318.16;5378870;26;20290;-89
2024/04/14 11:27:18;;;;;;;5.00;3.87;;;;;;;23.08;57.11;157302.53;5406273;26;20481;-90